Time;durP1;ratioP1;P1;durP2;ratioP2;P2;SDS_P1;SDS_P2;PMS_P1;PMS_P2;Temp;Humidity;BMP_temperature;BMP_pressure;BME280_temperature;BME280_humidity;BME280_pressure;Samples;Min_cycle;Max_cycle;Signal;HPM_P1;HPM_P2
2023/04/30 00:01:02;;;;;;;;;;;;;;;12.34;72.49;100211.91;104612;277;114082;-55
2023/04/30 00:03:36;;;;;;;;;;;;;;;12.34;72.39;100207.54;104124;277;97371;-54
2023/04/30 00:06:08;;;;;;;;;;;;;;;12.27;72.98;100212.41;104178;277;97411;-54
2023/04/30 00:08:41;;;;;;;;;;;;;;;12.25;73.04;100211.36;104044;278;119694;-54
2023/04/30 00:11:13;;;;;;;;;;;;;;;12.24;73.20;100212.77;104069;277;105828;-54
2023/04/30 00:13:46;;;;;;;;;;;;;;;12.24;73.40;100210.36;104604;277;113857;-54
2023/04/30 00:16:18;;;;;;;;;;;;;;;12.24;73.64;100212.66;104609;277;95669;-56
2023/04/30 00:18:50;;;;;;;;;;;;;;;12.21;73.61;100209.34;104000;277;97376;-56
2023/04/30 00:21:22;;;;;;;;;;;;;;;12.20;73.86;100214.88;103961;277;120216;-56
2023/04/30 00:23:55;;;;;;;;;;;;;;;12.17;74.22;100211.95;104127;277;104293;-56
2023/04/30 00:26:27;;;;;;;;;;;;;;;12.13;74.33;100211.20;104508;277;114236;-56
2023/04/30 00:28:59;;;;;;;;;;;;;;;12.08;74.43;100215.44;104575;277;96917;-56
2023/04/30 00:31:31;;;;;;;;;;;;;;;12.07;74.56;100216.73;104602;277;96394;-58
2023/04/30 00:34:03;;;;;;;;;;;;;;;12.07;74.73;100216.84;104129;277;120839;-57
2023/04/30 00:36:35;;;;;;;;;;;;;;;12.09;74.84;100221.52;104175;277;105482;-56
2023/04/30 00:39:07;;;;;;;;;;;;;;;12.11;75.00;100221.91;104599;277;114194;-57
2023/04/30 00:41:40;;;;;;;;;;;;;;;12.09;75.14;100223.72;104184;277;96867;-57
2023/04/30 00:44:12;;;;;;;;;;;;;;;12.09;75.25;100224.34;104609;277;96153;-56
2023/04/30 00:46:44;;;;;;;;;;;;;;;12.08;75.33;100222.31;104162;277;120792;-55
2023/04/30 00:49:16;;;;;;;;;;;;;;;12.04;75.44;100224.12;104193;277;105308;-54
2023/04/30 00:51:48;;;;;;;;;;;;;;;12.04;75.48;100224.75;104185;277;114707;-57
2023/04/30 00:54:21;;;;;;;;;;;;;;;12.09;75.33;100223.98;104641;277;94451;-57
2023/04/30 00:56:54;;;;;;;;;;;;;;;12.13;75.44;100225.90;104201;277;97867;-57
2023/04/30 00:59:28;;;;;;;;;;;;;;;12.16;75.35;100227.59;104185;278;121498;-55
2023/04/30 01:02:00;;;;;;;;;;;;;;;12.16;75.49;100227.33;104170;277;104667;-57
2023/04/30 01:04:33;;;;;;;;;;;;;;;12.16;75.34;100229.87;104170;277;113849;-57
2023/04/30 01:07:06;;;;;;;;;;;;;;;12.15;75.52;100229.08;104187;286;94385;-58
2023/04/30 01:09:38;;;;;;;;;;;;;;;12.11;75.62;100230.02;104196;277;97025;-55
2023/04/30 01:12:15;;;;;;;;;;;;;;;12.10;75.56;100228.08;104615;277;120763;-55
2023/04/30 01:14:57;;;;;;;;;;;;;;;12.10;75.61;100224.23;104174;277;105674;-57
2023/04/30 01:17:36;;;;;;;;;;;;;;;12.10;75.79;100229.19;104135;277;113181;-57
2023/04/30 01:20:11;;;;;;;;;;;;;;;12.10;75.73;100229.40;104124;277;97045;-54
2023/04/30 01:22:52;;;;;;;;;;;;;;;12.11;75.73;100231.61;103967;279;96476;-54
2023/04/30 01:25:41;;;;;;;;;;;;;;;12.11;75.92;100233.23;104117;277;120572;-55
2023/04/30 01:28:15;;;;;;;;;;;;;;;12.13;75.88;100237.11;103753;278;480961;-55
2023/04/30 01:30:48;;;;;;;;;;;;;;;12.17;75.91;100237.48;104109;277;115672;-57
2023/04/30 01:33:20;;;;;;;;;;;;;;;12.15;76.06;100238.27;104581;277;95976;-57
2023/04/30 01:36:31;;;;;;;;;;;;;;;12.19;75.92;100241.51;104153;278;98088;-58
2023/04/30 01:39:20;;;;;;;;;;;;;;;12.19;76.03;100239.92;104023;278;119756;-58
2023/04/30 01:42:00;;;;;;;;;;;;;;;12.25;75.96;100244.31;104137;277;105660;-55
2023/04/30 01:44:48;;;;;;;;;;;;;;;12.28;75.87;100243.61;104592;277;114804;-55
2023/04/30 01:47:27;;;;;;;;;;;;;;;12.29;75.84;100242.41;104128;277;96804;-54
2023/04/30 01:50:07;;;;;;;;;;;;;;;12.28;75.87;100245.90;104140;277;96903;-57
2023/04/30 01:52:46;;;;;;;;;;;;;;;12.31;75.73;100246.08;104100;277;121174;-57
2023/04/30 01:55:21;;;;;;;;;;;;;;;12.28;75.74;100246.21;104117;277;105203;-58
2023/04/30 01:57:58;;;;;;;;;;;;;;;12.29;75.65;100253.95;103977;278;114440;-58
2023/04/30 02:00:31;;;;;;;;;;;;;;;12.29;75.95;100258.41;104569;277;93467;-56
2023/04/30 02:03:03;;;;;;;;;;;;;;;12.25;75.91;100262.02;104022;275;98058;-56
2023/04/30 02:05:35;;;;;;;;;;;;;;;12.22;76.07;100259.63;104600;277;120699;-57
2023/04/30 02:08:08;;;;;;;;;;;;;;;12.22;75.96;100261.35;104608;277;105326;-58
2023/04/30 02:10:40;;;;;;;;;;;;;;;12.19;76.11;100260.67;104574;277;114783;-57
2023/04/30 02:13:12;;;;;;;;;;;;;;;12.18;76.20;100261.41;103950;277;94262;-56
2023/04/30 02:15:44;;;;;;;;;;;;;;;12.18;76.20;100264.92;104118;277;97431;-55
2023/04/30 02:18:17;;;;;;;;;;;;;;;12.16;76.28;100264.15;104586;278;120431;-54
2023/04/30 02:20:49;;;;;;;;;;;;;;;12.16;76.34;100270.40;104129;277;106037;-56
2023/04/30 02:23:21;;;;;;;;;;;;;;;12.16;76.35;100272.23;104579;277;114188;-57
2023/04/30 02:25:53;;;;;;;;;;;;;;;12.14;76.48;100270.58;104595;277;94497;-56
2023/04/30 02:28:25;;;;;;;;;;;;;;;12.13;76.48;100277.48;104110;277;98169;-57
2023/04/30 02:30:58;;;;;;;;;;;;;;;12.10;76.69;100275.63;103921;277;121150;-55
2023/04/30 02:33:30;;;;;;;;;;;;;;;12.09;76.68;100279.29;104082;277;105887;-55
2023/04/30 02:36:02;;;;;;;;;;;;;;;12.10;76.81;100280.42;104573;277;113579;-54
2023/04/30 02:38:34;;;;;;;;;;;;;;;12.12;76.97;100282.31;104573;277;95689;-55
2023/04/30 02:41:06;;;;;;;;;;;;;;;12.11;77.19;100291.88;104571;277;98117;-57
2023/04/30 02:43:38;;;;;;;;;;;;;;;12.14;77.15;100292.98;104596;277;120756;-57
2023/04/30 02:46:10;;;;;;;;;;;;;;;12.10;77.64;100295.05;104597;277;104557;-57
2023/04/30 02:48:42;;;;;;;;;;;;;;;12.10;77.57;100299.21;104102;277;113698;-57
2023/04/30 02:51:14;;;;;;;;;;;;;;;12.13;77.53;100308.73;104594;277;96971;-54
2023/04/30 02:53:47;;;;;;;;;;;;;;;12.10;77.49;100311.34;104556;277;98209;-54
2023/04/30 02:56:19;;;;;;;;;;;;;;;12.10;77.22;100315.27;104137;277;121286;-56
2023/04/30 02:58:51;;;;;;;;;;;;;;;12.09;77.41;100320.58;104127;277;105006;-56
2023/04/30 03:01:23;;;;;;;;;;;;;;;12.00;77.22;100321.70;104567;277;114683;-56
2023/04/30 03:03:55;;;;;;;;;;;;;;;11.96;77.14;100325.13;104587;277;94982;-56
2023/04/30 03:06:27;;;;;;;;;;;;;;;11.95;77.07;100327.91;104609;277;96716;-54
2023/04/30 03:08:59;;;;;;;;;;;;;;;11.98;76.74;100330.30;104606;277;121046;-54
2023/04/30 03:11:32;;;;;;;;;;;;;;;12.01;76.50;100332.66;104153;277;105600;-57
2023/04/30 03:14:04;;;;;;;;;;;;;;;11.98;76.63;100338.06;104117;278;113512;-57
2023/04/30 03:16:37;;;;;;;;;;;;;;;11.87;76.74;100336.58;104120;277;94575;-55
2023/04/30 03:19:09;;;;;;;;;;;;;;;11.77;76.69;100336.39;104161;277;96797;-55
2023/04/30 03:21:41;;;;;;;;;;;;;;;11.76;76.59;100341.43;104107;277;119453;-57
2023/04/30 03:24:13;;;;;;;;;;;;;;;11.71;76.83;100346.02;104133;277;104648;-57
2023/04/30 03:26:45;;;;;;;;;;;;;;;11.71;76.77;100348.81;104084;277;114862;-54
2023/04/30 03:29:17;;;;;;;;;;;;;;;11.67;76.53;100354.29;104604;278;94522;-54
2023/04/30 03:31:50;;;;;;;;;;;;;;;11.65;76.38;100360.23;104146;277;96065;-54
2023/04/30 03:34:22;;;;;;;;;;;;;;;11.42;76.36;100362.95;104578;277;119917;-54
2023/04/30 03:36:54;;;;;;;;;;;;;;;11.28;76.45;100370.02;104586;277;105304;-55
2023/04/30 03:39:27;;;;;;;;;;;;;;;11.12;76.61;100379.11;104100;277;114424;-55
2023/04/30 03:41:59;;;;;;;;;;;;;;;11.05;76.61;100383.99;104121;277;96280;-57
2023/04/30 03:44:31;;;;;;;;;;;;;;;11.02;76.55;100387.00;104169;277;97216;-55
2023/04/30 03:47:03;;;;;;;;;;;;;;;10.96;76.56;100386.40;104158;277;119722;-54
2023/04/30 03:49:35;;;;;;;;;;;;;;;10.94;76.44;100390.28;104133;277;105834;-54
2023/04/30 03:52:07;;;;;;;;;;;;;;;10.90;76.32;100393.40;104133;277;113397;-54
2023/04/30 03:54:39;;;;;;;;;;;;;;;10.90;76.13;100398.71;104146;277;95196;-55
2023/04/30 03:57:12;;;;;;;;;;;;;;;10.88;75.63;100405.23;104124;277;98252;-56
2023/04/30 03:59:45;;;;;;;;;;;;;;;10.79;74.94;100406.03;104178;277;120285;-55
2023/04/30 04:02:17;;;;;;;;;;;;;;;10.74;74.58;100412.19;104138;277;104996;-56
2023/04/30 04:04:50;;;;;;;;;;;;;;;10.68;74.33;100419.84;104154;277;114697;-55
2023/04/30 04:07:22;;;;;;;;;;;;;;;10.57;74.35;100428.51;104016;277;94711;-56
2023/04/30 04:09:54;;;;;;;;;;;;;;;10.53;74.37;100434.31;104170;277;98110;-57
2023/04/30 04:12:26;;;;;;;;;;;;;;;10.40;74.54;100443.36;104143;277;119143;-57
2023/04/30 04:14:58;;;;;;;;;;;;;;;10.40;74.54;100442.95;104654;277;106116;-54
2023/04/30 04:17:30;;;;;;;;;;;;;;;10.39;74.54;100451.83;104163;277;114578;-54
2023/04/30 04:20:04;;;;;;;;;;;;;;;10.34;74.93;100453.21;104165;277;93234;-54
2023/04/30 04:22:37;;;;;;;;;;;;;;;10.32;75.00;100452.59;104192;277;98341;-54
2023/04/30 04:25:10;;;;;;;;;;;;;;;10.23;74.95;100459.04;103990;277;120115;-55
2023/04/30 04:27:42;;;;;;;;;;;;;;;10.21;74.75;100454.89;104601;277;103489;-55
2023/04/30 04:30:14;;;;;;;;;;;;;;;10.20;74.66;100462.30;104144;277;113782;-54
2023/04/30 04:32:48;;;;;;;;;;;;;;;10.28;74.51;100468.20;104156;277;97268;-54
2023/04/30 04:35:21;;;;;;;;;;;;;;;10.32;74.36;100469.42;104123;277;97444;-54
2023/04/30 04:37:53;;;;;;;;;;;;;;;10.39;74.14;100474.35;104104;277;119511;-54
2023/04/30 04:40:25;;;;;;;;;;;;;;;10.46;74.26;100476.27;104590;270;104826;-54
2023/04/30 04:42:57;;;;;;;;;;;;;;;10.48;74.25;100483.53;104153;277;114513;-54
2023/04/30 04:45:30;;;;;;;;;;;;;;;10.59;74.14;100486.60;104111;277;94998;-54
2023/04/30 04:48:02;;;;;;;;;;;;;;;10.55;74.06;100492.16;104170;277;98010;-54
2023/04/30 04:50:35;;;;;;;;;;;;;;;10.61;74.04;100495.64;104599;277;120552;-54
2023/04/30 04:53:07;;;;;;;;;;;;;;;10.68;73.95;100497.97;104628;277;106161;-54
2023/04/30 04:55:42;;;;;;;;;;;;;;;10.63;74.00;100497.86;104185;277;114340;-55
2023/04/30 04:58:14;;;;;;;;;;;;;;;10.66;73.94;100502.89;104128;277;94861;-55
2023/04/30 05:00:47;;;;;;;;;;;;;;;10.64;73.82;100506.23;104639;277;96912;-57
2023/04/30 05:03:19;;;;;;;;;;;;;;;10.64;73.74;100509.27;104645;277;120111;-57
2023/04/30 05:05:52;;;;;;;;;;;;;;;10.59;73.64;100512.27;104132;270;104688;-57
2023/04/30 05:08:24;;;;;;;;;;;;;;;10.59;73.60;100514.92;104135;277;114230;-57
2023/04/30 05:10:56;;;;;;;;;;;;;;;10.60;73.42;100516.20;104148;277;93878;-54
2023/04/30 05:13:28;;;;;;;;;;;;;;;10.63;73.54;100523.66;104139;277;96416;-54
2023/04/30 05:16:01;;;;;;;;;;;;;;;10.67;73.42;100526.90;104145;277;121157;-54
2023/04/30 05:18:33;;;;;;;;;;;;;;;10.75;73.27;100527.41;104116;278;105708;-54
2023/04/30 05:21:06;;;;;;;;;;;;;;;10.77;73.14;100535.73;104160;277;113866;-57
2023/04/30 05:23:38;;;;;;;;;;;;;;;10.78;73.10;100539.02;104120;277;95190;-56
2023/04/30 05:26:10;;;;;;;;;;;;;;;10.86;73.20;100541.33;104124;277;97924;-54
2023/04/30 05:28:42;;;;;;;;;;;;;;;10.98;73.11;100545.27;104582;277;119826;-54
2023/04/30 05:31:15;;;;;;;;;;;;;;;11.11;72.98;100548.61;104632;277;105611;-54
2023/04/30 05:33:47;;;;;;;;;;;;;;;11.29;72.90;100552.77;104583;277;114423;-54
2023/04/30 05:36:19;;;;;;;;;;;;;;;11.34;72.65;100551.75;104132;277;96158;-57
2023/04/30 05:38:51;;;;;;;;;;;;;;;11.43;72.57;100554.63;104124;277;97696;-57
2023/04/30 05:41:24;;;;;;;;;;;;;;;11.48;72.66;100555.73;104121;277;120986;-55
2023/04/30 05:43:56;;;;;;;;;;;;;;;11.66;72.41;100558.55;104631;277;103225;-54
2023/04/30 05:46:28;;;;;;;;;;;;;;;11.72;72.39;100565.98;104172;277;115054;-57
2023/04/30 05:49:00;;;;;;;;;;;;;;;11.78;72.30;100570.02;104134;277;92684;-57
2023/04/30 05:51:33;;;;;;;;;;;;;;;11.85;72.15;100573.77;104638;277;98498;-54
2023/04/30 05:54:05;;;;;;;;;;;;;;;11.80;72.10;100573.88;104103;278;119552;-55
2023/04/30 05:56:37;;;;;;;;;;;;;;;11.81;72.03;100577.11;104139;278;103746;-54
2023/04/30 05:59:09;;;;;;;;;;;;;;;11.78;71.84;100579.23;104608;277;114775;-54
2023/04/30 06:01:41;;;;;;;;;;;;;;;11.80;71.60;100583.75;104139;277;93056;-57
2023/04/30 06:04:13;;;;;;;;;;;;;;;11.98;71.70;100578.06;104146;277;98185;-58
2023/04/30 06:06:45;;;;;;;;;;;;;;;12.54;71.71;100583.48;104142;277;120508;-54
2023/04/30 06:09:17;;;;;;;;;;;;;;;12.86;71.12;100583.66;104158;277;104456;-54
2023/04/30 06:11:50;;;;;;;;;;;;;;;13.31;70.95;100580.48;104143;277;114119;-58
2023/04/30 06:14:24;;;;;;;;;;;;;;;15.33;70.79;100575.48;104608;277;93893;-58
2023/04/30 06:16:56;;;;;;;;;;;;;;;15.98;68.70;100578.85;104616;277;96881;-57
2023/04/30 06:19:29;;;;;;;;;;;;;;;15.85;67.57;100583.09;104589;277;120936;-54
2023/04/30 06:22:01;;;;;;;;;;;;;;;15.23;66.94;100589.81;104071;277;104813;-55
2023/04/30 06:24:33;;;;;;;;;;;;;;;14.60;66.75;100598.86;104107;277;115258;-55
2023/04/30 06:27:05;;;;;;;;;;;;;;;14.39;67.06;100605.77;104598;278;94807;-55
2023/04/30 06:29:37;;;;;;;;;;;;;;;14.73;66.51;100603.92;104623;277;97848;-55
2023/04/30 06:32:09;;;;;;;;;;;;;;;14.84;66.16;100604.73;104128;278;120872;-55
2023/04/30 06:34:42;;;;;;;;;;;;;;;14.82;65.35;100604.16;104614;277;105723;-57
2023/04/30 06:37:14;;;;;;;;;;;;;;;15.81;65.63;100598.63;104117;277;114467;-56
2023/04/30 06:39:46;;;;;;;;;;;;;;;18.72;64.21;100591.16;104096;277;94751;-56
2023/04/30 06:42:19;;;;;;;;;;;;;;;21.20;61.63;100587.94;104594;278;97853;-56
2023/04/30 06:44:51;;;;;;;;;;;;;;;22.78;58.39;100590.98;104115;278;120249;-55
2023/04/30 06:47:23;;;;;;;;;;;;;;;23.70;55.23;100584.20;104617;277;104075;-55
2023/04/30 06:49:55;;;;;;;;;;;;;;;24.75;52.70;100584.67;104623;278;115305;-55
2023/04/30 06:52:27;;;;;;;;;;;;;;;25.56;50.58;100585.48;104105;277;94149;-55
2023/04/30 06:55:00;;;;;;;;;;;;;;;25.78;48.01;100586.12;104149;277;97435;-58
2023/04/30 06:57:32;;;;;;;;;;;;;;;26.07;46.11;100585.95;104605;277;120625;-58
2023/04/30 07:00:05;;;;;;;;;;;;;;;26.17;44.99;100582.45;104176;277;105260;-58
2023/04/30 07:02:38;;;;;;;;;;;;;;;26.65;43.19;100587.08;104143;277;114191;-59
2023/04/30 07:05:12;;;;;;;;;;;;;;;25.92;42.27;100589.38;104150;277;94190;-58
2023/04/30 07:07:45;;;;;;;;;;;;;;;24.91;40.98;100593.45;104182;277;98481;-59
2023/04/30 07:10:17;;;;;;;;;;;;;;;23.61;40.41;100600.55;104111;277;121351;-57
2023/04/30 07:12:49;;;;;;;;;;;;;;;22.31;40.84;100606.68;104615;278;105731;-57
2023/04/30 07:15:21;;;;;;;;;;;;;;;23.26;41.50;100604.77;104117;277;114324;-55
2023/04/30 07:17:54;;;;;;;;;;;;;;;24.52;40.55;100605.84;104552;277;94922;-55
2023/04/30 07:20:26;;;;;;;;;;;;;;;25.40;39.57;100599.76;104121;277;98268;-58
2023/04/30 07:22:58;;;;;;;;;;;;;;;26.77;39.10;100598.22;104567;278;120683;-58
2023/04/30 07:25:31;;;;;;;;;;;;;;;27.14;37.45;100600.54;104563;277;105455;-56
2023/04/30 07:28:03;;;;;;;;;;;;;;;27.72;36.82;100601.20;104113;278;115167;-56
2023/04/30 07:30:36;;;;;;;;;;;;;;;27.95;36.18;100603.65;104121;277;94604;-56
2023/04/30 07:33:08;;;;;;;;;;;;;;;28.24;35.37;100598.70;104597;277;97655;-56
2023/04/30 07:35:40;;;;;;;;;;;;;;;28.66;34.55;100599.98;104159;274;120786;-56
2023/04/30 07:38:12;;;;;;;;;;;;;;;28.40;33.93;100598.23;104104;278;106296;-56
2023/04/30 07:40:44;;;;;;;;;;;;;;;28.58;33.95;100601.00;104137;277;114017;-56
2023/04/30 07:43:16;;;;;;;;;;;;;;;28.93;33.14;100603.06;104131;277;93412;-56
2023/04/30 07:45:50;;;;;;;;;;;;;;;29.23;31.91;100608.42;104147;277;97376;-56
2023/04/30 07:48:22;;;;;;;;;;;;;;;28.77;32.05;100613.37;104611;277;120035;-55
2023/04/30 07:50:54;;;;;;;;;;;;;;;28.54;31.59;100618.40;104148;277;103786;-57
2023/04/30 07:53:26;;;;;;;;;;;;;;;28.75;31.15;100621.96;103959;279;115296;-57
2023/04/30 07:55:58;;;;;;;;;;;;;;;29.21;30.94;100623.31;104111;278;93267;-58
2023/04/30 07:58:30;;;;;;;;;;;;;;;29.16;30.39;100625.58;104645;278;97634;-58
2023/04/30 08:01:02;;;;;;;;;;;;;;;29.70;30.29;100628.80;104626;277;121621;-56
2023/04/30 08:03:35;;;;;;;;;;;;;;;29.64;29.67;100638.11;104140;277;105956;-56
2023/04/30 08:06:09;;;;;;;;;;;;;;;28.63;29.08;100628.30;104098;277;115104;-60
2023/04/30 08:08:41;;;;;;;;;;;;;;;28.20;29.42;100635.50;104137;277;94008;-59
2023/04/30 08:11:14;;;;;;;;;;;;;;;28.28;29.10;100632.83;104636;277;95979;-63
2023/04/30 08:13:46;;;;;;;;;;;;;;;28.66;28.65;100638.46;104116;277;120068;-62
2023/04/30 08:16:19;;;;;;;;;;;;;;;28.45;28.26;100643.78;104124;277;105764;-63
2023/04/30 08:18:52;;;;;;;;;;;;;;;27.59;28.15;100646.33;104140;277;113703;-56
2023/04/30 08:21:24;;;;;;;;;;;;;;;27.83;28.16;100643.93;104171;277;94211;-56
2023/04/30 08:23:56;;;;;;;;;;;;;;;27.75;27.86;100650.24;104140;277;97513;-55
2023/04/30 08:26:28;;;;;;;;;;;;;;;27.58;27.89;100649.89;104131;277;120764;-55
2023/04/30 08:29:01;;;;;;;;;;;;;;;28.25;27.75;100646.87;104622;277;104286;-62
2023/04/30 08:31:33;;;;;;;;;;;;;;;28.19;27.26;100651.95;104122;277;115392;-63
2023/04/30 08:34:05;;;;;;;;;;;;;;;28.26;27.38;100647.35;104136;277;95490;-64
2023/04/30 08:36:37;;;;;;;;;;;;;;;28.70;27.22;100646.17;104191;277;96438;-62
2023/04/30 08:39:10;;;;;;;;;;;;;;;28.52;27.02;100655.23;104133;277;121035;-58
2023/04/30 08:41:45;;;;;;;;;;;;;;;28.50;27.19;100656.05;104164;278;105151;-65
2023/04/30 08:44:19;;;;;;;;;;;;;;;29.01;26.38;100649.48;104112;277;114302;-55
2023/04/30 08:46:54;;;;;;;;;;;;;;;29.12;26.12;100659.64;104127;277;92476;-56
2023/04/30 08:49:27;;;;;;;;;;;;;;;29.29;25.38;100663.32;104637;277;96436;-56
2023/04/30 08:52:00;;;;;;;;;;;;;;;29.44;25.13;100669.34;104157;277;120688;-55
2023/04/30 08:54:33;;;;;;;;;;;;;;;29.68;24.52;100665.94;104636;277;104101;-56
2023/04/30 08:57:06;;;;;;;;;;;;;;;29.31;24.42;100661.27;104629;277;113723;-57
2023/04/30 08:59:38;;;;;;;;;;;;;;;29.45;24.26;100668.06;104141;277;92432;-55
2023/04/30 09:02:10;;;;;;;;;;;;;;;29.44;24.38;100671.88;104153;277;96136;-55
2023/04/30 09:04:42;;;;;;;;;;;;;;;28.89;24.36;100674.73;104152;277;120615;-57
2023/04/30 09:07:15;;;;;;;;;;;;;;;28.01;24.09;100678.69;104603;277;105106;-56
2023/04/30 09:09:47;;;;;;;;;;;;;;;27.46;24.51;100685.34;104192;277;114243;-56
2023/04/30 09:12:21;;;;;;;;;;;;;;;27.00;24.31;100679.66;104195;277;94399;-56
2023/04/30 09:15:03;;;;;;;;;;;;;;;26.46;24.41;100686.97;104635;277;97364;-58
2023/04/30 09:17:36;;;;;;;;;;;;;;;25.23;24.16;100695.77;104623;277;120043;-58
2023/04/30 09:20:14;;;;;;;;;;;;;;;24.23;24.41;100701.77;104206;277;105842;-58
2023/04/30 09:22:46;;;;;;;;;;;;;;;23.68;24.82;100700.11;104641;277;114584;-58
2023/04/30 09:25:19;;;;;;;;;;;;;;;23.45;25.59;100701.65;104659;277;95105;-59
2023/04/30 09:28:06;;;;;;;;;;;;;;;23.40;26.16;100697.91;104286;277;368831;-58
2023/04/30 09:30:39;;;;;;;;;;;;;;;23.38;26.19;100710.14;104030;279;120676;-57
2023/04/30 09:33:11;;;;;;;;;;;;;;;22.90;26.11;100705.19;104162;277;105786;-56
2023/04/30 09:35:43;;;;;;;;;;;;;;;22.95;26.28;100700.27;104158;277;114999;-54
2023/04/30 09:38:29;;;;;;;;;;;;;;;22.73;26.75;100699.14;104110;277;94279;-55
2023/04/30 09:41:02;;;;;;;;;;;;;;;22.58;27.31;100702.77;104122;277;97750;-55
2023/04/30 09:43:34;;;;;;;;;;;;;;;22.39;27.07;100710.30;104149;277;120930;-55
2023/04/30 09:46:06;;;;;;;;;;;;;;;21.81;27.38;100714.30;104131;281;104882;-55
2023/04/30 09:48:41;;;;;;;;;;;;;;;21.19;27.53;100709.38;104619;277;114106;-53
2023/04/30 09:51:13;;;;;;;;;;;;;;;20.56;28.01;100708.13;104164;277;94625;-54
2023/04/30 09:53:45;;;;;;;;;;;;;;;20.44;29.00;100712.58;104151;278;97556;-54
2023/04/30 09:56:20;;;;;;;;;;;;;;;20.64;29.15;100720.14;104179;277;122324;-56
2023/04/30 09:58:54;;;;;;;;;;;;;;;20.25;28.65;100716.70;104149;277;105227;-56
2023/04/30 10:01:27;;;;;;;;;;;;;;;20.13;28.98;100711.02;104113;277;113186;-56
2023/04/30 10:03:59;;;;;;;;;;;;;;;20.14;29.35;100707.04;104140;277;94747;-56
2023/04/30 10:06:34;;;;;;;;;;;;;;;19.81;29.55;100711.39;104612;277;96611;-54
2023/04/30 10:09:06;;;;;;;;;;;;;;;19.61;30.02;100710.20;104588;278;120873;-55
2023/04/30 10:11:41;;;;;;;;;;;;;;;19.31;30.07;100711.79;104629;277;105700;-56
2023/04/30 10:14:18;;;;;;;;;;;;;;;19.41;29.94;100712.17;104625;277;114329;-55
2023/04/30 10:16:56;;;;;;;;;;;;;;;19.67;29.93;100709.69;104135;277;94524;-54
2023/04/30 10:19:30;;;;;;;;;;;;;;;19.66;29.80;100705.36;104187;277;97389;-55
2023/04/30 10:22:03;;;;;;;;;;;;;;;19.62;29.80;100704.52;104125;277;120271;-54
2023/04/30 10:24:35;;;;;;;;;;;;;;;19.48;29.90;100707.98;104172;277;106042;-56
2023/04/30 10:27:07;;;;;;;;;;;;;;;19.34;30.11;100708.75;104134;277;114234;-57
2023/04/30 10:29:39;;;;;;;;;;;;;;;19.22;29.53;100707.19;104145;277;95122;-55
2023/04/30 10:32:13;;;;;;;;;;;;;;;19.02;29.60;100707.37;104614;278;97149;-54
2023/04/30 10:34:53;;;;;;;;;;;;;;;18.76;29.68;100715.42;104158;277;121658;-54
2023/04/30 10:37:30;;;;;;;;;;;;;;;18.42;30.09;100713.36;104596;277;105348;-54
2023/04/30 10:40:04;;;;;;;;;;;;;;;18.66;30.14;100707.17;104106;277;114881;-56
2023/04/30 10:42:45;;;;;;;;;;;;;;;18.77;30.56;100706.69;104603;277;93543;-57
2023/04/30 10:45:19;;;;;;;;;;;;;;;19.13;30.74;100706.48;104129;278;98321;-55
2023/04/30 10:47:55;;;;;;;;;;;;;;;19.31;30.55;100700.07;104117;278;122850;-55
2023/04/30 10:50:28;;;;;;;;;;;;;;;19.26;30.23;100709.15;104084;278;106471;-54
2023/04/30 10:53:05;;;;;;;;;;;;;;;18.97;29.71;100707.96;104085;278;113983;-54
2023/04/30 10:55:45;;;;;;;;;;;;;;;18.85;29.56;100712.86;104103;278;94589;-55
2023/04/30 10:58:27;;;;;;;;;;;;;;;18.65;29.61;100714.05;104083;278;96700;-56
2023/04/30 11:01:06;;;;;;;;;;;;;;;18.54;30.21;100715.64;104562;278;121936;-56
2023/04/30 11:03:41;;;;;;;;;;;;;;;18.18;30.56;100718.70;104092;278;104383;-56
2023/04/30 11:06:18;;;;;;;;;;;;;;;17.81;30.85;100717.33;103919;278;114670;-55
2023/04/30 11:08:50;;;;;;;;;;;;;;;17.77;31.33;100716.38;104498;278;94469;-56
2023/04/30 11:11:23;;;;;;;;;;;;;;;18.05;31.54;100711.55;104506;278;98283;-54
2023/04/30 11:14:01;;;;;;;;;;;;;;;18.25;31.92;100712.67;103973;279;122890;-54
2023/04/30 11:16:35;;;;;;;;;;;;;;;18.50;32.02;100712.49;104129;278;105626;-54
2023/04/30 11:19:14;;;;;;;;;;;;;;;18.64;31.94;100720.15;104110;278;113082;-54
2023/04/30 11:22:15;;;;;;;;;;;;;;;18.64;31.88;100716.55;104096;278;95081;-55
2023/04/30 11:25:05;;;;;;;;;;;;;;;18.70;31.06;100726.10;104108;278;96859;-55
2023/04/30 11:27:39;;;;;;;;;;;;;;;18.67;31.01;100722.32;104074;278;122285;-55
2023/04/30 11:30:16;;;;;;;;;;;;;;;18.72;31.00;100723.92;104120;278;105530;-54
2023/04/30 11:32:49;;;;;;;;;;;;;;;18.85;31.11;100724.58;104101;278;113846;-54
2023/04/30 11:35:21;;;;;;;;;;;;;;;18.99;30.99;100722.25;104081;278;94730;-56
2023/04/30 11:37:56;;;;;;;;;;;;;;;19.04;30.85;100716.79;104139;279;95044;-56
2023/04/30 11:40:29;;;;;;;;;;;;;;;18.64;30.72;100729.66;104569;278;121080;-58
2023/04/30 11:43:01;;;;;;;;;;;;;;;18.08;31.04;100727.67;104118;278;104253;-57
2023/04/30 11:45:33;;;;;;;;;;;;;;;17.91;31.37;100728.33;104111;277;113473;-55
2023/04/30 11:48:07;;;;;;;;;;;;;;;18.00;31.54;100731.38;103935;279;93998;-56
2023/04/30 11:50:44;;;;;;;;;;;;;;;18.03;31.66;100732.87;104117;277;97337;-54
2023/04/30 11:53:16;;;;;;;;;;;;;;;17.99;32.10;100725.19;104562;277;120917;-55
2023/04/30 11:55:49;;;;;;;;;;;;;;;18.07;32.03;100731.77;104579;277;104708;-55
2023/04/30 11:58:21;;;;;;;;;;;;;;;18.03;31.78;100734.64;104601;277;113900;-56
2023/04/30 12:00:53;;;;;;;;;;;;;;;17.99;31.41;100739.77;104187;277;94685;-54
2023/04/30 12:03:26;;;;;;;;;;;;;;;17.82;31.52;100744.23;104197;277;97486;-54
2023/04/30 12:05:58;;;;;;;;;;;;;;;17.47;31.38;100742.02;103953;277;120849;-54
2023/04/30 12:08:30;;;;;;;;;;;;;;;17.33;31.56;100746.50;104628;277;105410;-54
2023/04/30 12:11:02;;;;;;;;;;;;;;;17.23;32.32;100748.86;104136;277;114049;-56
2023/04/30 12:13:34;;;;;;;;;;;;;;;17.11;32.21;100742.80;104615;277;93744;-55
2023/04/30 12:16:07;;;;;;;;;;;;;;;17.12;32.37;100747.18;104627;277;96485;-54
2023/04/30 12:18:39;;;;;;;;;;;;;;;17.17;31.78;100743.88;104121;277;122195;-54
2023/04/30 12:21:11;;;;;;;;;;;;;;;17.26;31.91;100740.50;104160;277;105836;-55
2023/04/30 12:23:43;;;;;;;;;;;;;;;17.34;31.77;100750.05;104615;277;114645;-55
2023/04/30 12:26:16;;;;;;;;;;;;;;;17.17;31.70;100747.69;104160;277;94566;-55
2023/04/30 12:28:50;;;;;;;;;;;;;;;17.00;31.93;100755.17;104629;277;97289;-55
2023/04/30 12:31:23;;;;;;;;;;;;;;;16.78;31.77;100748.38;104153;277;121614;-56
2023/04/30 12:33:58;;;;;;;;;;;;;;;16.53;31.91;100746.83;104617;277;105957;-56
2023/04/30 12:36:35;;;;;;;;;;;;;;;16.75;32.50;100744.05;104134;278;113952;-55
2023/04/30 12:39:12;;;;;;;;;;;;;;;16.89;32.52;100748.77;104153;277;94955;-55
2023/04/30 12:41:45;;;;;;;;;;;;;;;16.96;32.99;100745.39;104216;277;98279;-57
2023/04/30 12:44:24;;;;;;;;;;;;;;;17.12;33.05;100742.98;104172;277;121504;-56
2023/04/30 12:46:59;;;;;;;;;;;;;;;17.11;32.49;100737.45;104593;277;105934;-54
2023/04/30 12:49:34;;;;;;;;;;;;;;;17.10;33.06;100740.80;104173;277;114483;-54
2023/04/30 12:52:09;;;;;;;;;;;;;;;17.16;32.23;100741.36;104161;277;94911;-54
2023/04/30 12:54:41;;;;;;;;;;;;;;;16.86;31.73;100739.09;104222;277;96660;-54
2023/04/30 12:57:14;;;;;;;;;;;;;;;16.59;32.26;100742.02;104180;277;122777;-54
2023/04/30 12:59:59;;;;;;;;;;;;;;;16.48;32.05;100730.05;104172;277;105647;-56
2023/04/30 13:02:31;;;;;;;;;;;;;;;16.39;32.42;100726.97;104146;277;112984;-56